sensor_id;sensor_type;location;lat;lon;timestamp;pressure;altitude;pressure_sealevel;temperature
20733;BMP180;10527;52.124;5.196;2023-08-17T00:01:02;102023.00;;;30.30
20733;BMP180;10527;52.124;5.196;2023-08-17T00:03:28;102015.00;;;30.30
20733;BMP180;10527;52.124;5.196;2023-08-17T00:05:58;102018.00;;;30.30
20733;BMP180;10527;52.124;5.196;2023-08-17T00:08:28;102021.00;;;30.30
20733;BMP180;10527;52.124;5.196;2023-08-17T00:10:55;102025.00;;;30.30
20733;BMP180;10527;52.124;5.196;2023-08-17T00:13:25;102023.00;;;30.20
20733;BMP180;10527;52.124;5.196;2023-08-17T00:15:52;102028.00;;;30.20
20733;BMP180;10527;52.124;5.196;2023-08-17T00:18:19;102026.00;;;30.20
20733;BMP180;10527;52.124;5.196;2023-08-17T00:20:45;102021.00;;;30.20
20733;BMP180;10527;52.124;5.196;2023-08-17T00:23:15;102017.00;;;30.10
20733;BMP180;10527;52.124;5.196;2023-08-17T00:25:42;102018.00;;;30.10
20733;BMP180;10527;52.124;5.196;2023-08-17T00:28:09;102019.00;;;30.10
20733;BMP180;10527;52.124;5.196;2023-08-17T00:30:36;102024.00;;;30.10
20733;BMP180;10527;52.124;5.196;2023-08-17T00:33:04;102021.00;;;30.00
20733;BMP180;10527;52.124;5.196;2023-08-17T00:35:32;102015.00;;;30.00
20733;BMP180;10527;52.124;5.196;2023-08-17T00:38:00;102009.00;;;30.00
20733;BMP180;10527;52.124;5.196;2023-08-17T00:40:26;102003.00;;;30.00
20733;BMP180;10527;52.124;5.196;2023-08-17T00:42:53;102000.00;;;30.00
20733;BMP180;10527;52.124;5.196;2023-08-17T00:45:22;102001.00;;;30.00
20733;BMP180;10527;52.124;5.196;2023-08-17T00:47:50;101999.00;;;29.90
20733;BMP180;10527;52.124;5.196;2023-08-17T00:50:17;102007.00;;;29.90
20733;BMP180;10527;52.124;5.196;2023-08-17T00:52:58;102011.00;;;29.90
20733;BMP180;10527;52.124;5.196;2023-08-17T00:55:25;102011.00;;;29.80
20733;BMP180;10527;52.124;5.196;2023-08-17T00:57:56;102010.00;;;29.80
20733;BMP180;10527;52.124;5.196;2023-08-17T01:00:25;102006.00;;;29.80
20733;BMP180;10527;52.124;5.196;2023-08-17T01:02:54;102011.00;;;29.70
20733;BMP180;10527;52.124;5.196;2023-08-17T01:05:23;102014.00;;;29.70
20733;BMP180;10527;52.124;5.196;2023-08-17T01:07:50;102003.00;;;29.70
20733;BMP180;10527;52.124;5.196;2023-08-17T01:10:18;102000.00;;;29.70
20733;BMP180;10527;52.124;5.196;2023-08-17T01:13:06;102003.00;;;29.70
20733;BMP180;10527;52.124;5.196;2023-08-17T01:15:43;102003.00;;;29.70
20733;BMP180;10527;52.124;5.196;2023-08-17T01:18:20;102002.00;;;29.60
20733;BMP180;10527;52.124;5.196;2023-08-17T01:20:53;101998.00;;;29.60
20733;BMP180;10527;52.124;5.196;2023-08-17T01:23:20;101997.00;;;29.60
20733;BMP180;10527;52.124;5.196;2023-08-17T01:25:47;102000.00;;;29.60
20733;BMP180;10527;52.124;5.196;2023-08-17T01:28:15;101998.00;;;29.60
20733;BMP180;10527;52.124;5.196;2023-08-17T01:33:31;101994.00;;;29.50
20733;BMP180;10527;52.124;5.196;2023-08-17T01:36:35;101994.00;;;29.50
20733;BMP180;10527;52.124;5.196;2023-08-17T01:39:04;101999.00;;;29.50
20733;BMP180;10527;52.124;5.196;2023-08-17T01:41:37;101995.00;;;29.50
20733;BMP180;10527;52.124;5.196;2023-08-17T01:44:05;101999.00;;;29.40
20733;BMP180;10527;52.124;5.196;2023-08-17T01:46:36;102001.00;;;29.40
20733;BMP180;10527;52.124;5.196;2023-08-17T01:49:08;101998.00;;;29.40
20733;BMP180;10527;52.124;5.196;2023-08-17T01:51:34;101994.00;;;29.40
20733;BMP180;10527;52.124;5.196;2023-08-17T01:54:01;101998.00;;;29.40
20733;BMP180;10527;52.124;5.196;2023-08-17T01:56:28;101995.00;;;29.30
20733;BMP180;10527;52.124;5.196;2023-08-17T01:58:58;101987.00;;;29.30
20733;BMP180;10527;52.124;5.196;2023-08-17T02:01:25;101987.00;;;29.30
20733;BMP180;10527;52.124;5.196;2023-08-17T02:03:55;101992.00;;;29.30
20733;BMP180;10527;52.124;5.196;2023-08-17T02:06:22;101992.00;;;29.20
20733;BMP180;10527;52.124;5.196;2023-08-17T02:08:49;101984.00;;;29.20
20733;BMP180;10527;52.124;5.196;2023-08-17T02:11:18;101987.00;;;29.20
20733;BMP180;10527;52.124;5.196;2023-08-17T02:13:45;101992.00;;;29.20
20733;BMP180;10527;52.124;5.196;2023-08-17T02:16:12;101984.00;;;29.20
20733;BMP180;10527;52.124;5.196;2023-08-17T02:18:39;101987.00;;;29.20
20733;BMP180;10527;52.124;5.196;2023-08-17T02:21:09;101994.00;;;29.20
20733;BMP180;10527;52.124;5.196;2023-08-17T02:23:36;101997.00;;;29.10
20733;BMP180;10527;52.124;5.196;2023-08-17T02:26:03;101992.00;;;29.10
20733;BMP180;10527;52.124;5.196;2023-08-17T02:28:32;101998.00;;;29.10
20733;BMP180;10527;52.124;5.196;2023-08-17T02:30:59;101986.00;;;29.10
20733;BMP180;10527;52.124;5.196;2023-08-17T02:33:26;101992.00;;;29.00
20733;BMP180;10527;52.124;5.196;2023-08-17T02:35:53;101993.00;;;29.00
20733;BMP180;10527;52.124;5.196;2023-08-17T02:38:20;101985.00;;;29.00
20733;BMP180;10527;52.124;5.196;2023-08-17T02:40:49;101985.00;;;29.00
20733;BMP180;10527;52.124;5.196;2023-08-17T02:43:16;101985.00;;;29.00
20733;BMP180;10527;52.124;5.196;2023-08-17T02:45:50;101980.00;;;29.00
20733;BMP180;10527;52.124;5.196;2023-08-17T02:48:19;101969.00;;;29.00
20733;BMP180;10527;52.124;5.196;2023-08-17T02:50:46;101975.00;;;29.00
20733;BMP180;10527;52.124;5.196;2023-08-17T02:53:12;101980.00;;;29.00
20733;BMP180;10527;52.124;5.196;2023-08-17T02:55:39;101971.00;;;29.00
20733;BMP180;10527;52.124;5.196;2023-08-17T02:58:06;101980.00;;;29.00
20733;BMP180;10527;52.124;5.196;2023-08-17T03:00:33;101970.00;;;29.00
20733;BMP180;10527;52.124;5.196;2023-08-17T03:03:00;101970.00;;;29.00
20733;BMP180;10527;52.124;5.196;2023-08-17T03:05:27;101974.00;;;29.00
20733;BMP180;10527;52.124;5.196;2023-08-17T03:07:54;101974.00;;;28.90
20733;BMP180;10527;52.124;5.196;2023-08-17T03:10:21;101962.00;;;28.90
20733;BMP180;10527;52.124;5.196;2023-08-17T03:12:48;101962.00;;;28.90
20733;BMP180;10527;52.124;5.196;2023-08-17T03:15:15;101964.00;;;28.90
20733;BMP180;10527;52.124;5.196;2023-08-17T03:17:46;101964.00;;;28.90
20733;BMP180;10527;52.124;5.196;2023-08-17T03:20:13;101966.00;;;28.90
20733;BMP180;10527;52.124;5.196;2023-08-17T03:22:39;101966.00;;;28.90
20733;BMP180;10527;52.124;5.196;2023-08-17T03:25:07;101962.00;;;28.90
20733;BMP180;10527;52.124;5.196;2023-08-17T03:27:34;101968.00;;;28.90
20733;BMP180;10527;52.124;5.196;2023-08-17T03:30:01;101968.00;;;28.90
20733;BMP180;10527;52.124;5.196;2023-08-17T03:32:28;101967.00;;;28.90
20733;BMP180;10527;52.124;5.196;2023-08-17T03:34:55;101966.00;;;28.90
20733;BMP180;10527;52.124;5.196;2023-08-17T03:37:24;101968.00;;;28.90
20733;BMP180;10527;52.124;5.196;2023-08-17T03:39:54;101960.00;;;28.90
20733;BMP180;10527;52.124;5.196;2023-08-17T03:42:21;101957.00;;;28.80
20733;BMP180;10527;52.124;5.196;2023-08-17T03:44:51;101958.00;;;28.80
20733;BMP180;10527;52.124;5.196;2023-08-17T03:47:21;101967.00;;;28.80
20733;BMP180;10527;52.124;5.196;2023-08-17T03:49:48;101959.00;;;28.80
20733;BMP180;10527;52.124;5.196;2023-08-17T03:52:15;101960.00;;;28.80
20733;BMP180;10527;52.124;5.196;2023-08-17T03:54:41;101954.00;;;28.80
20733;BMP180;10527;52.124;5.196;2023-08-17T03:57:08;101961.00;;;28.80
20733;BMP180;10527;52.124;5.196;2023-08-17T03:59:35;101956.00;;;28.70
20733;BMP180;10527;52.124;5.196;2023-08-17T04:02:02;101964.00;;;28.70
20733;BMP180;10527;52.124;5.196;2023-08-17T04:04:29;101973.00;;;28.70
20733;BMP180;10527;52.124;5.196;2023-08-17T04:06:56;101966.00;;;28.60
20733;BMP180;10527;52.124;5.196;2023-08-17T04:09:26;101974.00;;;28.60
20733;BMP180;10527;52.124;5.196;2023-08-17T04:11:55;101974.00;;;28.60
20733;BMP180;10527;52.124;5.196;2023-08-17T04:14:24;101976.00;;;28.60
20733;BMP180;10527;52.124;5.196;2023-08-17T04:16:51;101975.00;;;28.60
20733;BMP180;10527;52.124;5.196;2023-08-17T04:19:18;101966.00;;;28.60
20733;BMP180;10527;52.124;5.196;2023-08-17T04:21:45;101966.00;;;28.60
20733;BMP180;10527;52.124;5.196;2023-08-17T04:24:15;101970.00;;;28.50
20733;BMP180;10527;52.124;5.196;2023-08-17T04:26:41;101968.00;;;28.50
20733;BMP180;10527;52.124;5.196;2023-08-17T04:29:13;101966.00;;;28.50
20733;BMP180;10527;52.124;5.196;2023-08-17T04:31:40;101965.00;;;28.50
20733;BMP180;10527;52.124;5.196;2023-08-17T04:34:07;101963.00;;;28.50
20733;BMP180;10527;52.124;5.196;2023-08-17T04:36:34;101958.00;;;28.50
20733;BMP180;10527;52.124;5.196;2023-08-17T04:39:01;101959.00;;;28.50
20733;BMP180;10527;52.124;5.196;2023-08-17T04:41:27;101961.00;;;28.50
20733;BMP180;10527;52.124;5.196;2023-08-17T04:43:54;101951.00;;;28.50
20733;BMP180;10527;52.124;5.196;2023-08-17T04:46:24;101948.00;;;28.50
20733;BMP180;10527;52.124;5.196;2023-08-17T04:48:51;101954.00;;;28.50
20733;BMP180;10527;52.124;5.196;2023-08-17T04:51:19;101951.00;;;28.40
20733;BMP180;10527;52.124;5.196;2023-08-17T04:53:46;101952.00;;;28.40
20733;BMP180;10527;52.124;5.196;2023-08-17T04:56:12;101955.00;;;28.40
20733;BMP180;10527;52.124;5.196;2023-08-17T04:58:39;101949.00;;;28.40
20733;BMP180;10527;52.124;5.196;2023-08-17T05:01:06;101958.00;;;28.40
20733;BMP180;10527;52.124;5.196;2023-08-17T05:03:33;101948.00;;;28.40
20733;BMP180;10527;52.124;5.196;2023-08-17T05:06:00;101953.00;;;28.40
20733;BMP180;10527;52.124;5.196;2023-08-17T05:08:27;101951.00;;;28.40
20733;BMP180;10527;52.124;5.196;2023-08-17T05:10:54;101946.00;;;28.40
20733;BMP180;10527;52.124;5.196;2023-08-17T05:13:21;101948.00;;;28.40
20733;BMP180;10527;52.124;5.196;2023-08-17T05:15:48;101944.00;;;28.40
20733;BMP180;10527;52.124;5.196;2023-08-17T05:18:14;101954.00;;;28.40
20733;BMP180;10527;52.124;5.196;2023-08-17T05:20:41;101942.00;;;28.40
20733;BMP180;10527;52.124;5.196;2023-08-17T05:23:08;101943.00;;;28.40
20733;BMP180;10527;52.124;5.196;2023-08-17T05:25:35;101952.00;;;28.40
20733;BMP180;10527;52.124;5.196;2023-08-17T05:28:02;101941.00;;;28.40
20733;BMP180;10527;52.124;5.196;2023-08-17T05:30:29;101943.00;;;28.40
20733;BMP180;10527;52.124;5.196;2023-08-17T05:32:59;101940.00;;;28.40
20733;BMP180;10527;52.124;5.196;2023-08-17T05:35:26;101938.00;;;28.40
20733;BMP180;10527;52.124;5.196;2023-08-17T05:37:53;101934.00;;;28.40
20733;BMP180;10527;52.124;5.196;2023-08-17T05:40:20;101942.00;;;28.40
20733;BMP180;10527;52.124;5.196;2023-08-17T05:42:49;101957.00;;;28.40
20733;BMP180;10527;52.124;5.196;2023-08-17T05:45:16;101949.00;;;28.40
20733;BMP180;10527;52.124;5.196;2023-08-17T05:47:43;101951.00;;;28.40
20733;BMP180;10527;52.124;5.196;2023-08-17T05:50:12;101951.00;;;28.40
20733;BMP180;10527;52.124;5.196;2023-08-17T05:52:46;101953.00;;;28.50
20733;BMP180;10527;52.124;5.196;2023-08-17T05:55:16;101957.00;;;28.50
20733;BMP180;10527;52.124;5.196;2023-08-17T05:57:43;101958.00;;;28.60
20733;BMP180;10527;52.124;5.196;2023-08-17T06:00:11;101959.00;;;28.60
20733;BMP180;10527;52.124;5.196;2023-08-17T06:02:39;101963.00;;;28.60
20733;BMP180;10527;52.124;5.196;2023-08-17T06:05:07;101960.00;;;28.60
20733;BMP180;10527;52.124;5.196;2023-08-17T06:07:38;101964.00;;;28.60
20733;BMP180;10527;52.124;5.196;2023-08-17T06:10:06;101965.00;;;28.60
20733;BMP180;10527;52.124;5.196;2023-08-17T06:12:33;101969.00;;;28.70
20733;BMP180;10527;52.124;5.196;2023-08-17T06:15:02;101968.00;;;28.70
20733;BMP180;10527;52.124;5.196;2023-08-17T06:17:29;101972.00;;;28.70
20733;BMP180;10527;52.124;5.196;2023-08-17T06:19:56;101974.00;;;28.80
20733;BMP180;10527;52.124;5.196;2023-08-17T06:22:26;101964.00;;;28.80
20733;BMP180;10527;52.124;5.196;2023-08-17T06:24:53;101976.00;;;28.80
20733;BMP180;10527;52.124;5.196;2023-08-17T06:27:22;101977.00;;;28.80
20733;BMP180;10527;52.124;5.196;2023-08-17T06:29:49;101977.00;;;28.90
20733;BMP180;10527;52.124;5.196;2023-08-17T06:32:18;101969.00;;;28.90
20733;BMP180;10527;52.124;5.196;2023-08-17T06:34:45;101983.00;;;28.90
20733;BMP180;10527;52.124;5.196;2023-08-17T06:37:12;101976.00;;;28.90
20733;BMP180;10527;52.124;5.196;2023-08-17T06:39:39;101980.00;;;28.90
20733;BMP180;10527;52.124;5.196;2023-08-17T06:42:06;101978.00;;;28.90
20733;BMP180;10527;52.124;5.196;2023-08-17T06:44:33;101987.00;;;29.00
20733;BMP180;10527;52.124;5.196;2023-08-17T06:46:59;101981.00;;;29.00
20733;BMP180;10527;52.124;5.196;2023-08-17T06:49:26;101982.00;;;29.00
20733;BMP180;10527;52.124;5.196;2023-08-17T06:51:54;101985.00;;;29.00
20733;BMP180;10527;52.124;5.196;2023-08-17T06:54:23;101990.00;;;29.00
20733;BMP180;10527;52.124;5.196;2023-08-17T06:56:50;101994.00;;;29.10
20733;BMP180;10527;52.124;5.196;2023-08-17T06:59:17;101980.00;;;29.10
20733;BMP180;10527;52.124;5.196;2023-08-17T07:01:44;101993.00;;;29.10
20733;BMP180;10527;52.124;5.196;2023-08-17T07:04:11;101989.00;;;29.20
20733;BMP180;10527;52.124;5.196;2023-08-17T07:06:40;101985.00;;;29.20
20733;BMP180;10527;52.124;5.196;2023-08-17T07:09:10;101991.00;;;29.20
20733;BMP180;10527;52.124;5.196;2023-08-17T07:11:39;101996.00;;;29.20
20733;BMP180;10527;52.124;5.196;2023-08-17T07:14:06;101992.00;;;29.20
20733;BMP180;10527;52.124;5.196;2023-08-17T07:16:35;101985.00;;;29.20
20733;BMP180;10527;52.124;5.196;2023-08-17T07:19:03;101994.00;;;29.30
20733;BMP180;10527;52.124;5.196;2023-08-17T07:21:32;101993.00;;;29.30
20733;BMP180;10527;52.124;5.196;2023-08-17T07:24:12;101993.00;;;29.30
20733;BMP180;10527;52.124;5.196;2023-08-17T07:26:42;101995.00;;;29.30
20733;BMP180;10527;52.124;5.196;2023-08-17T07:29:11;101997.00;;;29.30
20733;BMP180;10527;52.124;5.196;2023-08-17T07:31:39;101992.00;;;29.40
20733;BMP180;10527;52.124;5.196;2023-08-17T07:34:09;101982.00;;;29.40
20733;BMP180;10527;52.124;5.196;2023-08-17T07:36:36;101986.00;;;29.40
20733;BMP180;10527;52.124;5.196;2023-08-17T07:39:03;101993.00;;;29.50
20733;BMP180;10527;52.124;5.196;2023-08-17T07:41:31;101990.00;;;29.50
20733;BMP180;10527;52.124;5.196;2023-08-17T07:43:59;101979.00;;;29.50
20733;BMP180;10527;52.124;5.196;2023-08-17T07:46:25;101990.00;;;29.50
20733;BMP180;10527;52.124;5.196;2023-08-17T07:48:52;101988.00;;;29.60
20733;BMP180;10527;52.124;5.196;2023-08-17T07:51:19;101995.00;;;29.60
20733;BMP180;10527;52.124;5.196;2023-08-17T07:53:46;101990.00;;;29.70
20733;BMP180;10527;52.124;5.196;2023-08-17T07:56:13;101992.00;;;29.70
20733;BMP180;10527;52.124;5.196;2023-08-17T07:58:42;101993.00;;;29.80
20733;BMP180;10527;52.124;5.196;2023-08-17T08:01:09;101994.00;;;29.80
20733;BMP180;10527;52.124;5.196;2023-08-17T08:03:36;101989.00;;;29.90
20733;BMP180;10527;52.124;5.196;2023-08-17T08:06:03;101988.00;;;29.90
20733;BMP180;10527;52.124;5.196;2023-08-17T08:08:30;101981.00;;;30.00
20733;BMP180;10527;52.124;5.196;2023-08-17T08:10:58;101992.00;;;30.10
20733;BMP180;10527;52.124;5.196;2023-08-17T08:13:28;101996.00;;;30.20
20733;BMP180;10527;52.124;5.196;2023-08-17T08:15:55;102005.00;;;30.20
20733;BMP180;10527;52.124;5.196;2023-08-17T08:18:22;101994.00;;;30.30
20733;BMP180;10527;52.124;5.196;2023-08-17T08:20:49;101979.00;;;30.40
20733;BMP180;10527;52.124;5.196;2023-08-17T08:23:15;101978.00;;;30.40
20733;BMP180;10527;52.124;5.196;2023-08-17T08:25:42;101978.00;;;30.60
20733;BMP180;10527;52.124;5.196;2023-08-17T08:28:12;101974.00;;;30.70
20733;BMP180;10527;52.124;5.196;2023-08-17T08:30:39;101983.00;;;30.80
20733;BMP180;10527;52.124;5.196;2023-08-17T08:33:06;101973.00;;;30.90
20733;BMP180;10527;52.124;5.196;2023-08-17T08:35:33;101982.00;;;31.00
20733;BMP180;10527;52.124;5.196;2023-08-17T08:38:00;101978.00;;;31.00
20733;BMP180;10527;52.124;5.196;2023-08-17T08:40:29;101983.00;;;31.10
20733;BMP180;10527;52.124;5.196;2023-08-17T08:42:57;101981.00;;;31.20
20733;BMP180;10527;52.124;5.196;2023-08-17T08:45:27;101977.00;;;31.30
20733;BMP180;10527;52.124;5.196;2023-08-17T08:48:01;101977.00;;;31.40
20733;BMP180;10527;52.124;5.196;2023-08-17T08:50:31;101973.00;;;31.50
20733;BMP180;10527;52.124;5.196;2023-08-17T08:53:01;101979.00;;;31.70
20733;BMP180;10527;52.124;5.196;2023-08-17T08:55:54;101973.00;;;31.80
20733;BMP180;10527;52.124;5.196;2023-08-17T08:58:22;101971.00;;;31.90
20733;BMP180;10527;52.124;5.196;2023-08-17T09:00:49;101973.00;;;32.00
20733;BMP180;10527;52.124;5.196;2023-08-17T09:03:17;101966.00;;;32.00
20733;BMP180;10527;52.124;5.196;2023-08-17T09:05:53;101962.00;;;32.00
20733;BMP180;10527;52.124;5.196;2023-08-17T09:08:31;101963.00;;;32.10
20733;BMP180;10527;52.124;5.196;2023-08-17T09:10:58;101967.00;;;32.10
20733;BMP180;10527;52.124;5.196;2023-08-17T09:13:24;101968.00;;;32.20
20733;BMP180;10527;52.124;5.196;2023-08-17T09:15:51;101965.00;;;32.20
20733;BMP180;10527;52.124;5.196;2023-08-17T09:18:20;101969.00;;;32.20
20733;BMP180;10527;52.124;5.196;2023-08-17T09:20:47;101967.00;;;32.20
20733;BMP180;10527;52.124;5.196;2023-08-17T09:23:20;101960.00;;;32.20
20733;BMP180;10527;52.124;5.196;2023-08-17T09:25:49;101958.00;;;32.20
20733;BMP180;10527;52.124;5.196;2023-08-17T09:28:19;101955.00;;;32.20
20733;BMP180;10527;52.124;5.196;2023-08-17T09:31:02;101949.00;;;32.30
20733;BMP180;10527;52.124;5.196;2023-08-17T09:33:33;101957.00;;;32.30
20733;BMP180;10527;52.124;5.196;2023-08-17T09:36:00;101952.00;;;32.30
20733;BMP180;10527;52.124;5.196;2023-08-17T09:38:30;101952.00;;;32.30
20733;BMP180;10527;52.124;5.196;2023-08-17T09:41:03;101945.00;;;32.30
20733;BMP180;10527;52.124;5.196;2023-08-17T09:43:30;101947.00;;;32.30
20733;BMP180;10527;52.124;5.196;2023-08-17T09:46:01;101943.00;;;32.30
20733;BMP180;10527;52.124;5.196;2023-08-17T09:48:32;101952.00;;;32.30
20733;BMP180;10527;52.124;5.196;2023-08-17T09:51:02;101946.00;;;32.30
20733;BMP180;10527;52.124;5.196;2023-08-17T09:53:29;101943.00;;;32.40
20733;BMP180;10527;52.124;5.196;2023-08-17T09:56:00;101938.00;;;32.40
20733;BMP180;10527;52.124;5.196;2023-08-17T09:58:28;101939.00;;;32.40
20733;BMP180;10527;52.124;5.196;2023-08-17T10:01:03;101927.00;;;32.40
20733;BMP180;10527;52.124;5.196;2023-08-17T10:03:35;101931.00;;;32.40
20733;BMP180;10527;52.124;5.196;2023-08-17T10:06:06;101925.00;;;32.50
20733;BMP180;10527;52.124;5.196;2023-08-17T10:08:51;101921.00;;;32.50
20733;BMP180;10527;52.124;5.196;2023-08-17T10:11:21;101927.00;;;32.60
20733;BMP180;10527;52.124;5.196;2023-08-17T10:14:09;101918.00;;;32.70
20733;BMP180;10527;52.124;5.196;2023-08-17T10:16:59;101926.00;;;32.80
20733;BMP180;10527;52.124;5.196;2023-08-17T10:19:49;101925.00;;;32.90
20733;BMP180;10527;52.124;5.196;2023-08-17T10:22:39;101934.00;;;33.00
20733;BMP180;10527;52.124;5.196;2023-08-17T10:25:16;101932.00;;;33.10
20733;BMP180;10527;52.124;5.196;2023-08-17T10:27:45;101920.00;;;33.10
20733;BMP180;10527;52.124;5.196;2023-08-17T10:30:17;101921.00;;;33.10
20733;BMP180;10527;52.124;5.196;2023-08-17T10:32:45;101918.00;;;33.00
20733;BMP180;10527;52.124;5.196;2023-08-17T10:35:14;101917.00;;;33.00
20733;BMP180;10527;52.124;5.196;2023-08-17T10:37:42;101924.00;;;33.00
20733;BMP180;10527;52.124;5.196;2023-08-17T10:40:10;101926.00;;;32.90
20733;BMP180;10527;52.124;5.196;2023-08-17T10:42:54;101926.00;;;32.90
20733;BMP180;10527;52.124;5.196;2023-08-17T10:45:29;101927.00;;;32.80
20733;BMP180;10527;52.124;5.196;2023-08-17T10:50:36;101928.00;;;32.80
20733;BMP180;10527;52.124;5.196;2023-08-17T10:53:12;101929.00;;;32.80
20733;BMP180;10527;52.124;5.196;2023-08-17T10:55:44;101933.00;;;32.80
20733;BMP180;10527;52.124;5.196;2023-08-17T10:58:11;101917.00;;;32.80
20733;BMP180;10527;52.124;5.196;2023-08-17T11:00:42;101924.00;;;32.80
20733;BMP180;10527;52.124;5.196;2023-08-17T11:03:19;101926.00;;;32.80
20733;BMP180;10527;52.124;5.196;2023-08-17T11:06:18;101927.00;;;32.70
20733;BMP180;10527;52.124;5.196;2023-08-17T11:08:54;101921.00;;;32.60
20733;BMP180;10527;52.124;5.196;2023-08-17T11:11:23;101922.00;;;32.60
20733;BMP180;10527;52.124;5.196;2023-08-17T11:13:52;101928.00;;;32.60
20733;BMP180;10527;52.124;5.196;2023-08-17T11:16:23;101931.00;;;32.60
20733;BMP180;10527;52.124;5.196;2023-08-17T11:18:50;101937.00;;;32.70
20733;BMP180;10527;52.124;5.196;2023-08-17T11:21:18;101929.00;;;32.70
20733;BMP180;10527;52.124;5.196;2023-08-17T11:23:46;101927.00;;;32.70
20733;BMP180;10527;52.124;5.196;2023-08-17T11:26:18;101921.00;;;32.70
20733;BMP180;10527;52.124;5.196;2023-08-17T11:28:49;101919.00;;;32.70
20733;BMP180;10527;52.124;5.196;2023-08-17T11:31:16;101917.00;;;32.70
20733;BMP180;10527;52.124;5.196;2023-08-17T11:33:43;101920.00;;;32.70
20733;BMP180;10527;52.124;5.196;2023-08-17T11:36:11;101919.00;;;32.70
20733;BMP180;10527;52.124;5.196;2023-08-17T11:38:41;101916.00;;;32.70
20733;BMP180;10527;52.124;5.196;2023-08-17T11:41:11;101916.00;;;32.70
20733;BMP180;10527;52.124;5.196;2023-08-17T11:43:46;101921.00;;;32.70
20733;BMP180;10527;52.124;5.196;2023-08-17T11:46:13;101918.00;;;32.70
20733;BMP180;10527;52.124;5.196;2023-08-17T11:48:45;101916.00;;;32.70
20733;BMP180;10527;52.124;5.196;2023-08-17T11:51:11;101915.00;;;32.70
20733;BMP180;10527;52.124;5.196;2023-08-17T11:53:39;101917.00;;;32.70
20733;BMP180;10527;52.124;5.196;2023-08-17T11:56:10;101914.00;;;32.70
20733;BMP180;10527;52.124;5.196;2023-08-17T11:58:46;101914.00;;;32.70
20733;BMP180;10527;52.124;5.196;2023-08-17T12:01:14;101914.00;;;32.70
20733;BMP180;10527;52.124;5.196;2023-08-17T12:03:48;101913.00;;;32.70
20733;BMP180;10527;52.124;5.196;2023-08-17T12:06:16;101905.00;;;32.70
20733;BMP180;10527;52.124;5.196;2023-08-17T12:08:47;101911.00;;;32.70
20733;BMP180;10527;52.124;5.196;2023-08-17T12:11:18;101910.00;;;32.70
20733;BMP180;10527;52.124;5.196;2023-08-17T12:13:53;101916.00;;;32.70
20733;BMP180;10527;52.124;5.196;2023-08-17T12:16:23;101908.00;;;32.70
20733;BMP180;10527;52.124;5.196;2023-08-17T12:18:52;101911.00;;;32.70
20733;BMP180;10527;52.124;5.196;2023-08-17T12:21:21;101910.00;;;32.70
20733;BMP180;10527;52.124;5.196;2023-08-17T12:23:49;101904.00;;;32.80
20733;BMP180;10527;52.124;5.196;2023-08-17T12:26:20;101910.00;;;32.80
20733;BMP180;10527;52.124;5.196;2023-08-17T12:28:48;101906.00;;;32.80
20733;BMP180;10527;52.124;5.196;2023-08-17T12:31:22;101902.00;;;32.90
20733;BMP180;10527;52.124;5.196;2023-08-17T12:33:51;101903.00;;;32.90
20733;BMP180;10527;52.124;5.196;2023-08-17T12:36:17;101895.00;;;32.90
20733;BMP180;10527;52.124;5.196;2023-08-17T12:38:45;101896.00;;;32.90
20733;BMP180;10527;52.124;5.196;2023-08-17T12:41:14;101908.00;;;32.90
20733;BMP180;10527;52.124;5.196;2023-08-17T12:43:41;101898.00;;;32.90
20733;BMP180;10527;52.124;5.196;2023-08-17T12:46:08;101904.00;;;32.90
20733;BMP180;10527;52.124;5.196;2023-08-17T12:48:35;101910.00;;;32.90
20733;BMP180;10527;52.124;5.196;2023-08-17T12:51:05;101908.00;;;32.90
20733;BMP180;10527;52.124;5.196;2023-08-17T12:53:32;101907.00;;;32.90
20733;BMP180;10527;52.124;5.196;2023-08-17T12:55:59;101915.00;;;32.80
20733;BMP180;10527;52.124;5.196;2023-08-17T12:58:25;101913.00;;;32.80
20733;BMP180;10527;52.124;5.196;2023-08-17T13:00:52;101914.00;;;32.80
20733;BMP180;10527;52.124;5.196;2023-08-17T13:03:21;101910.00;;;32.70
20733;BMP180;10527;52.124;5.196;2023-08-17T13:05:49;101911.00;;;32.70
20733;BMP180;10527;52.124;5.196;2023-08-17T13:08:16;101913.00;;;32.70
20733;BMP180;10527;52.124;5.196;2023-08-17T13:10:43;101900.00;;;32.70
20733;BMP180;10527;52.124;5.196;2023-08-17T13:13:09;101901.00;;;32.70
20733;BMP180;10527;52.124;5.196;2023-08-17T13:15:36;101903.00;;;32.70
20733;BMP180;10527;52.124;5.196;2023-08-17T13:18:03;101910.00;;;32.70
20733;BMP180;10527;52.124;5.196;2023-08-17T13:20:31;101916.00;;;32.70
20733;BMP180;10527;52.124;5.196;2023-08-17T13:22:59;101906.00;;;32.70
20733;BMP180;10527;52.124;5.196;2023-08-17T13:25:26;101913.00;;;32.60
20733;BMP180;10527;52.124;5.196;2023-08-17T13:27:53;101909.00;;;32.60
20733;BMP180;10527;52.124;5.196;2023-08-17T13:30:19;101908.00;;;32.60
20733;BMP180;10527;52.124;5.196;2023-08-17T13:32:46;101915.00;;;32.60
20733;BMP180;10527;52.124;5.196;2023-08-17T13:35:14;101908.00;;;32.60
20733;BMP180;10527;52.124;5.196;2023-08-17T13:37:41;101902.00;;;32.70
20733;BMP180;10527;52.124;5.196;2023-08-17T13:40:09;101903.00;;;32.70
20733;BMP180;10527;52.124;5.196;2023-08-17T13:42:36;101906.00;;;32.70
20733;BMP180;10527;52.124;5.196;2023-08-17T13:45:04;101902.00;;;32.70
20733;BMP180;10527;52.124;5.196;2023-08-17T13:47:31;101907.00;;;32.70
20733;BMP180;10527;52.124;5.196;2023-08-17T13:49:58;101896.00;;;32.70
20733;BMP180;10527;52.124;5.196;2023-08-17T13:52:25;101889.00;;;32.70
20733;BMP180;10527;52.124;5.196;2023-08-17T13:54:52;101886.00;;;32.70
20733;BMP180;10527;52.124;5.196;2023-08-17T13:57:19;101885.00;;;32.70
20733;BMP180;10527;52.124;5.196;2023-08-17T13:59:46;101888.00;;;32.70
20733;BMP180;10527;52.124;5.196;2023-08-17T14:02:13;101884.00;;;32.70
20733;BMP180;10527;52.124;5.196;2023-08-17T14:04:40;101880.00;;;32.70
20733;BMP180;10527;52.124;5.196;2023-08-17T14:07:07;101880.00;;;32.70
20733;BMP180;10527;52.124;5.196;2023-08-17T14:09:34;101879.00;;;32.80
20733;BMP180;10527;52.124;5.196;2023-08-17T14:12:00;101879.00;;;32.80